createdAt,value
2022-11-01T00:02:57.031Z,32.45
2022-11-01T00:07:58.974Z,33.58
2022-11-01T00:13:01.252Z,32.20
2022-11-01T00:18:03.660Z,25.27
2022-11-01T00:23:05.584Z,24.35
2022-11-01T00:28:07.533Z,23.17
2022-11-01T00:33:09.642Z,24.20
2022-11-01T00:38:11.727Z,25.85
2022-11-01T00:43:14.188Z,26.80
2022-11-01T00:48:16.107Z,22.80
2022-11-01T00:53:18.410Z,23.08
2022-11-01T00:58:20.318Z,19.63
2022-11-01T01:03:22.302Z,20.58
2022-11-01T01:08:25.083Z,22.63
2022-11-01T01:13:26.940Z,21.60
2022-11-01T01:18:28.835Z,22.58
2022-11-01T01:23:31.444Z,22.80
2022-11-01T01:28:33.362Z,20.65
2022-11-01T01:33:35.539Z,27.13
2022-11-01T01:38:37.713Z,25.75
2022-11-01T01:43:43.820Z,22.60
2022-11-01T01:48:52.270Z,24.80
2022-11-01T01:53:58.420Z,27.27
2022-11-01T01:59:10.849Z,24.75
2022-11-01T02:04:24.659Z,23.40
2022-11-01T02:09:29.404Z,22.33
2022-11-01T02:14:33.766Z,27.40
2022-11-01T02:20:12.807Z,23.98
2022-11-01T02:25:35.908Z,23.63
2022-11-01T02:31:09.517Z,23.53
2022-11-01T02:36:20.134Z,25.05
2022-11-01T02:41:30.239Z,24.10
2022-11-01T02:47:01.333Z,21.63
2022-11-01T02:52:05.239Z,25.80
2022-11-01T02:57:17.009Z,24.67
2022-11-01T03:02:39.392Z,30.63
2022-11-01T03:07:45.152Z,24.52
2022-11-01T03:12:59.696Z,26.83
2022-11-01T03:18:08.417Z,27.48
2022-11-01T03:23:10.664Z,27.40
2022-11-01T03:28:20.834Z,25.58
2022-11-01T03:33:25.590Z,29.02
2022-11-01T03:38:30.434Z,26.17
2022-11-01T03:43:35.952Z,34.67
2022-11-01T03:48:41.244Z,30.08
2022-11-01T03:53:43.107Z,25.15
2022-11-01T03:58:46.186Z,25.45
2022-11-01T04:03:48.208Z,35.90
2022-11-01T04:08:50.143Z,26.98
2022-11-01T04:13:52.035Z,27.90
2022-11-01T04:19:12.263Z,27.92
2022-11-01T04:24:20.958Z,29.75
2022-11-01T04:29:23.083Z,28.17
2022-11-01T04:34:43.144Z,31.27
2022-11-01T04:39:44.991Z,30.25
2022-11-01T04:44:48.013Z,33.55
2022-11-01T04:49:49.834Z,32.70
2022-11-01T04:54:51.703Z,30.13
2022-11-01T04:59:55.578Z,43.33
2022-11-01T05:09:59.508Z,27.45
2022-11-01T05:15:01.591Z,25.02
2022-11-01T05:20:03.754Z,23.30
2022-11-01T05:25:05.974Z,24.02
2022-11-01T05:30:08.551Z,26.77
2022-11-01T05:35:10.379Z,29.65
2022-11-01T05:40:12.372Z,25.63
2022-11-01T05:45:14.619Z,33.72
2022-11-01T05:50:16.938Z,28.98
2022-11-01T05:55:18.850Z,26.83
2022-11-01T06:00:21.004Z,23.05
2022-11-01T06:05:22.815Z,23.58
2022-11-01T06:10:24.734Z,20.63
2022-11-01T06:15:26.591Z,19.90
2022-11-01T06:20:30.739Z,21.83
2022-11-01T06:25:32.594Z,22.67
2022-11-01T06:30:34.556Z,21.98
2022-11-01T06:35:36.737Z,22.38
2022-11-01T06:40:38.590Z,22.60
2022-11-01T06:45:40.430Z,21.45
2022-11-01T06:50:42.298Z,20.80
2022-11-01T06:55:44.227Z,19.40
2022-11-01T07:00:46.481Z,18.85
2022-11-01T07:05:50.064Z,19.75
2022-11-01T07:15:54.441Z,21.77
2022-11-01T07:20:56.979Z,20.67
2022-11-01T07:25:58.983Z,22.90
2022-11-01T07:31:01.248Z,21.02
2022-11-01T07:36:04.413Z,21.88
2022-11-01T07:41:06.495Z,21.77
2022-11-01T07:46:08.339Z,21.98
2022-11-01T07:51:10.254Z,22.33
2022-11-01T07:56:12.117Z,25.45
2022-11-01T08:01:14.711Z,26.00
2022-11-01T08:06:16.937Z,22.27
2022-11-01T08:11:18.932Z,21.85
2022-11-01T08:16:20.789Z,19.05
2022-11-01T08:21:22.621Z,22.95
2022-11-01T08:26:24.509Z,21.95
2022-11-01T08:31:26.413Z,18.92
2022-11-01T08:36:28.451Z,19.10
2022-11-01T08:41:30.437Z,21.25
2022-11-01T08:46:32.499Z,22.45
2022-11-01T08:51:34.543Z,20.58
2022-11-01T08:56:36.387Z,27.02
2022-11-01T09:01:38.845Z,23.33
2022-11-01T09:06:40.794Z,26.50
2022-11-01T09:11:42.665Z,25.88
2022-11-01T09:16:44.499Z,23.02
2022-11-01T09:21:46.815Z,23.80
2022-11-01T09:26:48.646Z,25.85
2022-11-01T09:31:52.700Z,26.73
2022-11-01T09:36:54.647Z,23.17
2022-11-01T09:42:06.554Z,25.30
2022-11-01T09:47:14.779Z,26.20
2022-11-01T09:52:23.265Z,27.58
2022-11-01T09:57:43.062Z,30.00
2022-11-01T10:02:57.371Z,29.80
2022-11-01T10:08:17.632Z,27.65
2022-11-01T10:13:19.495Z,29.70
2022-11-01T10:18:42.257Z,31.23
2022-11-01T10:23:52.363Z,34.17
2022-11-01T10:28:54.164Z,30.02
2022-11-01T10:34:02.681Z,32.13
2022-11-01T10:44:45.422Z,33.33
2022-11-01T10:50:05.258Z,31.48
2022-11-01T10:55:13.415Z,43.10
2022-11-01T11:00:18.908Z,47.22
2022-11-01T11:05:23.286Z,38.08
2022-11-01T11:10:28.586Z,40.75
2022-11-01T11:15:41.859Z,37.13
2022-11-01T11:20:44.158Z,36.47
2022-11-01T11:25:46.099Z,37.67
2022-11-01T11:30:52.831Z,38.10
2022-11-01T11:36:00.024Z,42.60
2022-11-01T11:41:01.915Z,44.15
2022-11-01T11:46:12.590Z,41.15
2022-11-01T11:51:15.106Z,41.55
2022-11-01T11:56:21.265Z,38.30
2022-11-01T12:01:26.034Z,37.47
2022-11-01T12:06:29.887Z,37.60
2022-11-01T12:11:47.952Z,35.17
2022-11-01T12:16:50.611Z,37.00
2022-11-01T12:21:54.574Z,36.33
2022-11-01T12:27:01.917Z,34.67
2022-11-01T12:32:11.303Z,39.22
2022-11-01T12:37:18.959Z,34.60
2022-11-01T12:42:39.802Z,34.45
2022-11-01T12:47:49.984Z,36.65
2022-11-01T12:52:58.622Z,38.65
2022-11-01T12:58:00.959Z,41.67
2022-11-01T13:03:40.210Z,40.97
2022-11-01T13:08:45.214Z,34.50
2022-11-01T13:14:06.830Z,39.10
2022-11-01T13:19:23.639Z,46.63
2022-11-01T13:24:47.114Z,40.90
2022-11-01T13:29:58.193Z,36.42
2022-11-01T13:35:33.050Z,39.78
2022-11-01T13:40:43.807Z,38.08
2022-11-01T13:46:04.522Z,41.97
2022-11-01T13:51:21.435Z,38.20
2022-11-01T13:56:34.039Z,32.58
2022-11-01T14:01:38.800Z,39.88
2022-11-01T14:06:51.478Z,47.60
2022-11-01T14:12:05.648Z,33.65
2022-11-01T14:17:19.458Z,30.77
2022-11-01T14:22:29.107Z,34.58
2022-11-01T14:27:35.684Z,31.23
2022-11-01T14:32:37.929Z,31.52
2022-11-01T14:37:47.690Z,32.38
2022-11-01T14:42:51.816Z,37.72
2022-11-01T14:47:58.542Z,37.10
2022-11-01T14:53:07.938Z,34.35
2022-11-01T14:58:18.000Z,35.30
2022-11-01T15:03:20.590Z,37.00
2022-11-01T15:08:24.908Z,34.10
2022-11-01T15:13:28.133Z,51.72
2022-11-01T15:18:30.271Z,47.60
2022-11-01T15:23:38.158Z,39.85
2022-11-01T15:28:45.448Z,41.28
2022-11-01T15:34:01.303Z,46.75
2022-11-01T15:39:17.264Z,76.55
2022-11-01T15:44:25.016Z,96.75
2022-11-01T15:49:29.431Z,71.85
2022-11-01T15:54:49.400Z,94.57
2022-11-01T16:00:00.958Z,80.40
2022-11-01T16:05:03.373Z,60.15
2022-11-01T16:10:09.270Z,47.70
2022-11-01T16:15:37.839Z,52.55
2022-11-01T16:20:47.353Z,55.55
2022-11-01T16:26:03.847Z,44.47
2022-11-01T16:31:22.671Z,51.17
2022-11-01T16:36:36.909Z,50.28
2022-11-01T16:41:41.148Z,105.25
2022-11-01T16:46:43.344Z,42.65
2022-11-01T16:51:45.570Z,40.88
2022-11-01T16:56:49.399Z,47.42
2022-11-01T17:01:52.286Z,61.78
2022-11-01T17:06:55.766Z,58.08
2022-11-01T17:11:57.687Z,50.03
2022-11-01T17:17:07.038Z,40.65
2022-11-01T17:22:16.531Z,43.33
2022-11-01T17:27:19.035Z,42.60
2022-11-01T17:32:20.896Z,42.83
2022-11-01T17:37:25.194Z,45.78
2022-11-01T17:42:26.981Z,55.90
2022-11-01T17:47:28.977Z,42.42
2022-11-01T17:52:30.963Z,48.13
2022-11-01T17:57:32.984Z,52.78
2022-11-01T18:02:35.038Z,47.83
2022-11-01T18:07:40.482Z,55.60
2022-11-01T18:13:11.659Z,50.80
2022-11-01T18:18:28.827Z,70.85
2022-11-01T18:23:31.839Z,56.70
2022-11-01T18:28:36.597Z,48.08
2022-11-01T18:33:55.059Z,51.05
2022-11-01T18:39:16.319Z,54.10
2022-11-01T18:44:24.267Z,52.05
2022-11-01T18:49:32.349Z,48.45
2022-11-01T18:54:50.035Z,51.53
2022-11-01T18:59:54.755Z,39.65
2022-11-01T19:05:23.351Z,54.97
2022-11-01T19:10:28.330Z,31.40
2022-11-01T19:15:30.573Z,31.73
2022-11-01T19:20:38.750Z,58.53
2022-11-01T19:25:43.754Z,145.88
2022-11-01T19:30:53.069Z,189.60
2022-11-01T19:35:55.924Z,41.47
2022-11-01T19:40:58.029Z,35.57
2022-11-01T19:46:00.073Z,36.53
2022-11-01T19:51:02.082Z,38.80
2022-11-01T19:56:11.233Z,45.45
2022-11-01T20:01:13.135Z,40.78
2022-11-01T20:06:20.008Z,48.35
2022-11-01T20:11:22.233Z,41.30
2022-11-01T20:16:24.203Z,43.17
2022-11-01T20:21:26.876Z,49.20
2022-11-01T20:26:28.777Z,48.85
2022-11-01T20:31:32.031Z,51.22
2022-11-01T20:36:33.920Z,48.65
2022-11-01T20:41:36.960Z,48.42
2022-11-01T20:46:38.816Z,49.80
2022-11-01T20:51:40.845Z,47.75
2022-11-01T20:56:42.732Z,52.22
2022-11-01T21:01:44.830Z,55.72
2022-11-01T21:06:46.881Z,56.35
2022-11-01T21:11:49.187Z,53.35
2022-11-01T21:16:52.932Z,53.22
2022-11-01T21:21:58.945Z,53.40
2022-11-01T21:27:12.870Z,52.27
2022-11-01T21:32:25.253Z,52.42
2022-11-01T21:37:29.910Z,56.17
2022-11-01T21:42:34.205Z,54.53
2022-11-01T21:47:36.137Z,56.47
2022-11-01T21:52:38.021Z,61.75
2022-11-01T21:57:40.167Z,65.07
2022-11-01T22:02:43.107Z,62.70
2022-11-01T22:07:45.050Z,59.03
2022-11-01T22:12:46.899Z,62.42
2022-11-01T22:17:48.738Z,61.20
2022-11-01T22:22:50.900Z,64.65
2022-11-01T22:27:55.735Z,61.78
2022-11-01T22:32:57.634Z,55.53
2022-11-01T22:38:00.027Z,54.55
2022-11-01T22:43:03.482Z,62.80
2022-11-01T22:53:24.440Z,56.88
2022-11-01T22:58:37.568Z,64.00
2022-11-01T23:03:40.336Z,60.25
2022-11-01T23:08:42.372Z,57.77
2022-11-01T23:14:02.772Z,58.85
2022-11-01T23:19:09.554Z,69.85
2022-11-01T23:24:12.150Z,68.97
2022-11-01T23:29:13.983Z,68.28
2022-11-01T23:34:16.020Z,62.78
2022-11-01T23:39:18.028Z,62.08
2022-11-01T23:44:19.826Z,78.88
2022-11-01T23:49:27.600Z,71.00
2022-11-01T23:54:42.121Z,60.53
2022-11-01T23:59:44.092Z,66.30
